KGCK

Garden City Regional Airport

Airport
ICAO code
KGCK
IATA Code
GCK
Summary
ICAO Region
NAM
ICAO Territory
Location

Garden City, Kansas

Serving
Garden City
Elevation
2891 ft
Coordinates
37° 55' 39" N , 100° 43' 20" W
KCC
Airport CFIT
Altimeter Temperature Error Correction
Metar
KGCK 181554Z 02022KT 10SM OVC015 06/02 A3019 RMK AO2 PK WND 01033/1512 SLP217 T00560017

Garden City Regional Airport is a public-use airport located 9 nm southeast of the central business district of Garden City, in Finney County, Kansas, USA.

Airport map

Aerial View

SKYbrary Partners:

Safety knowledge contributed by: